KGDV/GDV METAR and TAF weather

Enter ICAO airport designator
Station Type Date Time Source
KGDV METAR 2020/07/06 09:56 UTC NOAA

KGDV 060956Z AUTO 10SM CLR 16/14 A3003 RMK AO2 SLP152 T01560139 $


Station Type Date Time Source
KGDV Decoded METAR 2020/07/06 09:56 UTC NOAA

Glendive, Dawson Community Airport, MT, United States (KGDV) 47-08N 104-48W
Jul 06, 2020 - 05:56 AM EDT / 2020.07.06 0956 UTC
Visibility: 10 mile(s):0
Sky conditions: clear
Temperature: 60.1 F (15.6 C)
Dew Point: 57.0 F (13.9 C)
Relative Humidity: 89%
Pressure (altimeter): 30.03 in. Hg (1016 hPa)
ob: KGDV 060956Z AUTO 10SM CLR 16/14 A3003 RMK AO2 SLP152 T01560139
cycle: 10

Station Type Date Time Source
KGDV TAF 2020/07/06 06:39 UTC NOAA

TAF KGDV 060536Z 0606/0706 VRB06KT P6SM VCSH FEW180
FM060900 VRB06KT P6SM SKC
FM062000 VRB06KT P6SM SCT040 PROB30 0620/0702 6SM -TSRA BKN070CB

Example: see airport list